Time;durP1;ratioP1;P1;durP2;ratioP2;P2;SDS_P1;SDS_P2;PMS_P1;PMS_P2;Temp;Humidity;BMP_temperature;BMP_pressure;BME280_temperature;BME280_humidity;BME280_pressure;Samples;Min_cycle;Max_cycle;Signal;HPM_P1;HPM_P2
2022/05/16 00:00:21;;;;;;;0.70;0.20;;;19.60;99.90;;;;;;5064691;28;20491;-77
2022/05/16 00:02:51;;;;;;;0.70;0.10;;;19.60;99.90;;;;;;5054008;28;20526;-77
2022/05/16 00:05:19;;;;;;;0.70;0.20;;;19.60;99.90;;;;;;5056767;28;20441;-77
2022/05/16 00:07:48;;;;;;;0.90;0.40;;;19.60;99.90;;;;;;5052908;28;20427;-77
2022/05/16 00:10:17;;;;;;;0.60;0.20;;;19.60;99.90;;;;;;5053548;28;20936;-77
2022/05/16 00:12:45;;;;;;;0.63;0.10;;;19.60;99.90;;;;;;5055520;28;20449;-77
2022/05/16 00:15:15;;;;;;;0.68;0.20;;;19.60;99.90;;;;;;5056298;28;20544;-75
2022/05/16 00:17:43;;;;;;;0.70;0.20;;;19.50;99.90;;;;;;5054880;28;20589;-77
2022/05/16 00:20:13;;;;;;;0.97;0.87;;;19.40;99.90;;;;;;5054122;28;20852;-77
2022/05/16 00:22:41;;;;;;;0.70;0.20;;;19.40;99.90;;;;;;5047434;28;20503;-75
2022/05/16 00:25:11;;;;;;;0.70;0.10;;;19.40;99.90;;;;;;5054126;28;20456;-77
2022/05/16 00:27:40;;;;;;;0.60;0.10;;;19.40;99.90;;;;;;5054005;28;20205;-77
2022/05/16 00:30:11;;;;;;;0.60;0.20;;;19.40;99.90;;;;;;5053914;28;20450;-77
2022/05/16 00:32:39;;;;;;;0.70;0.10;;;19.30;99.90;;;;;;5046476;28;20436;-77
2022/05/16 00:35:08;;;;;;;0.70;0.15;;;19.30;99.90;;;;;;5052281;28;20215;-77
2022/05/16 00:37:38;;;;;;;0.70;0.20;;;19.30;99.90;;;;;;5054560;28;20205;-77
2022/05/16 00:40:08;;;;;;;0.60;0.20;;;19.30;99.90;;;;;;5056047;28;20484;-77
2022/05/16 00:42:36;;;;;;;0.70;0.10;;;19.30;99.90;;;;;;5061011;28;20947;-75
2022/05/16 00:45:06;;;;;;;0.60;0.20;;;19.30;99.90;;;;;;5061632;28;20946;-77
2022/05/16 00:47:33;;;;;;;0.67;0.10;;;19.30;99.90;;;;;;5057841;28;20801;-77
2022/05/16 00:50:03;;;;;;;0.70;0.10;;;19.30;99.90;;;;;;5056247;28;21243;-77
2022/05/16 00:52:35;;;;;;;0.70;0.10;;;19.30;99.90;;;;;;5055493;28;20475;-77
2022/05/16 00:55:09;;;;;;;1.10;0.50;;;19.30;99.90;;;;;;5055248;28;20450;-78
2022/05/16 00:57:39;;;;;;;0.60;0.10;;;19.20;99.90;;;;;;5043393;28;20441;-77
2022/05/16 01:00:11;;;;;;;0.70;0.10;;;19.10;99.90;;;;;;5053121;28;20483;-77
2022/05/16 01:05:27;;;;;;;0.70;0.13;;;19.10;99.90;;;;;;5054812;28;20194;-77
2022/05/16 01:07:59;;;;;;;0.70;0.10;;;19.10;99.90;;;;;;5054976;28;20934;-76
2022/05/16 01:10:28;;;;;;;0.60;0.20;;;19.00;99.90;;;;;;5054818;28;20844;-76
2022/05/16 01:12:56;;;;;;;0.60;0.10;;;19.00;99.90;;;;;;5055730;28;20777;-77
2022/05/16 01:15:30;;;;;;;0.60;0.10;;;19.10;99.90;;;;;;5056184;28;20444;-77
2022/05/16 01:17:58;;;;;;;0.70;0.20;;;19.00;99.90;;;;;;5058193;28;20706;-77
2022/05/16 01:20:43;;;;;;;0.70;0.10;;;19.00;99.90;;;;;;5058699;28;20566;-76
2022/05/16 01:23:15;;;;;;;0.70;0.10;;;18.90;99.90;;;;;;5056571;28;20447;-75
2022/05/16 01:25:43;;;;;;;0.60;0.20;;;18.90;99.90;;;;;;5054625;28;20446;-76
2022/05/16 01:28:11;;;;;;;0.70;0.17;;;18.90;99.90;;;;;;5035265;28;20451;-77
2022/05/16 01:30:46;;;;;;;0.60;0.10;;;18.80;99.90;;;;;;5035214;28;20459;-77
2022/05/16 01:33:14;;;;;;;0.60;0.20;;;18.80;99.90;;;;;;5035511;28;20442;-77
2022/05/16 01:35:42;;;;;;;0.70;0.10;;;18.80;99.90;;;;;;5043769;28;20208;-76
2022/05/16 01:38:22;;;;;;;0.60;0.10;;;18.70;99.90;;;;;;5053539;28;20446;-76
2022/05/16 01:40:53;;;;;;;0.60;0.10;;;18.70;99.90;;;;;;5054925;28;20490;-77
2022/05/16 01:43:22;;;;;;;0.70;0.10;;;18.60;99.90;;;;;;5054524;28;20449;-77
2022/05/16 01:45:51;;;;;;;0.90;0.40;;;18.60;99.90;;;;;;5053918;28;20485;-76
2022/05/16 01:48:20;;;;;;;0.60;0.10;;;18.60;99.90;;;;;;5052314;28;20603;-76
2022/05/16 01:50:50;;;;;;;0.60;0.10;;;18.60;99.90;;;;;;5052119;28;20558;-76
2022/05/16 01:53:19;;;;;;;0.60;0.10;;;18.50;99.90;;;;;;5053469;28;20457;-77
2022/05/16 01:55:47;;;;;;;0.70;0.20;;;18.50;99.90;;;;;;5051953;28;20445;-76
2022/05/16 01:58:15;;;;;;;0.60;0.17;;;18.50;99.90;;;;;;5052301;28;20205;-76
2022/05/16 02:00:43;;;;;;;0.60;0.20;;;18.50;99.90;;;;;;5053972;28;20488;-77
2022/05/16 02:03:11;;;;;;;0.60;0.10;;;18.40;99.90;;;;;;5052172;28;20453;-76
2022/05/16 02:05:41;;;;;;;0.60;0.20;;;18.30;99.90;;;;;;5052479;28;20451;-77
2022/05/16 02:08:10;;;;;;;0.60;0.20;;;18.30;99.90;;;;;;5051991;28;20442;-77
2022/05/16 02:10:40;;;;;;;0.60;0.10;;;18.20;99.90;;;;;;5051739;28;20566;-76
2022/05/16 02:13:08;;;;;;;0.60;0.10;;;18.20;99.90;;;;;;5052040;28;20584;-77
2022/05/16 02:15:38;;;;;;;0.70;0.32;;;18.20;99.90;;;;;;5052461;28;20817;-77
2022/05/16 02:18:07;;;;;;;0.60;0.20;;;18.20;99.90;;;;;;5051265;28;20218;-76
2022/05/16 02:20:35;;;;;;;1.83;1.33;;;18.30;99.90;;;;;;5051878;28;20485;-77
2022/05/16 02:25:53;;;;;;;0.70;0.20;;;18.20;99.90;;;;;;5051199;28;20805;-77
2022/05/16 02:28:22;;;;;;;0.60;0.20;;;18.20;99.90;;;;;;5050765;28;20449;-76
2022/05/16 02:30:52;;;;;;;0.60;0.30;;;18.20;99.90;;;;;;5051606;28;20221;-76
2022/05/16 02:33:21;;;;;;;0.63;0.20;;;18.20;99.90;;;;;;5053842;28;20837;-76
2022/05/16 02:35:49;;;;;;;0.60;0.10;;;18.30;99.90;;;;;;5055801;28;20475;-76
2022/05/16 02:38:20;;;;;;;0.60;0.13;;;18.30;99.90;;;;;;5057800;28;20452;-77
2022/05/16 02:40:48;;;;;;;0.60;0.17;;;18.30;99.90;;;;;;5056522;28;20514;-77
2022/05/16 02:43:17;;;;;;;0.60;0.10;;;18.30;99.90;;;;;;5056679;28;20794;-77
2022/05/16 02:45:45;;;;;;;0.60;0.10;;;18.30;99.90;;;;;;5058732;28;20225;-77
2022/05/16 02:48:13;;;;;;;0.60;0.20;;;18.40;99.90;;;;;;5056502;28;20986;-76
2022/05/16 02:50:41;;;;;;;0.60;0.20;;;18.40;99.90;;;;;;5055191;28;20458;-77
2022/05/16 02:53:10;;;;;;;0.60;0.10;;;18.40;99.90;;;;;;5054485;28;20447;-77
2022/05/16 02:55:39;;;;;;;0.60;0.10;;;18.40;99.90;;;;;;5055772;28;20443;-78
2022/05/16 02:58:08;;;;;;;0.60;0.10;;;18.40;99.90;;;;;;5058064;28;20447;-78
2022/05/16 03:00:38;;;;;;;0.60;0.10;;;18.40;99.90;;;;;;5058495;28;20521;-77
2022/05/16 03:03:06;;;;;;;2.93;2.67;;;18.40;99.90;;;;;;5067007;23;20333;-75
2022/05/16 03:05:34;;;;;;;0.60;0.20;;;18.30;99.90;;;;;;5054952;28;20444;-75
2022/05/16 03:08:02;;;;;;;0.60;0.10;;;;;;;;;;5055659;28;20450;-74
2022/05/16 03:10:31;;;;;;;0.60;0.10;;;18.20;99.90;;;;;;5055568;28;20533;-73
2022/05/16 03:12:59;;;;;;;0.60;0.10;;;18.20;99.90;;;;;;5055225;28;20506;-74
2022/05/16 03:15:29;;;;;;;0.60;0.20;;;18.10;99.90;;;;;;5055141;28;20458;-74
2022/05/16 03:17:59;;;;;;;0.60;0.20;;;18.10;99.90;;;;;;5055211;28;20443;-75
2022/05/16 03:20:27;;;;;;;0.80;0.73;;;18.10;99.90;;;;;;5050608;28;20481;-74
2022/05/16 03:22:55;;;;;;;0.60;0.20;;;18.10;99.90;;;;;;5060551;28;20474;-74
2022/05/16 03:25:23;;;;;;;0.60;0.20;;;18.10;99.90;;;;;;5059550;28;20446;-74
2022/05/16 03:27:50;;;;;;;0.60;0.20;;;18.10;99.90;;;;;;5061736;28;20457;-74
2022/05/16 03:30:18;;;;;;;0.60;0.20;;;18.10;99.90;;;;;;5058533;28;20445;-74
2022/05/16 03:32:46;;;;;;;0.60;0.10;;;18.10;99.90;;;;;;5058025;28;20564;-75
2022/05/16 03:35:16;;;;;;;0.60;0.20;;;;;;;;;;5055335;28;20547;-74
2022/05/16 03:37:44;;;;;;;0.60;0.20;;;18.10;99.90;;;;;;5054372;28;20874;-74
2022/05/16 03:42:59;;;;;;;0.60;0.20;;;18.10;99.90;;;;;;5055601;28;20458;-74
2022/05/16 03:45:27;;;;;;;0.60;0.10;;;18.10;99.90;;;;;;5053654;28;20493;-74
2022/05/16 03:47:55;;;;;;;0.60;0.10;;;18.10;99.90;;;;;;5054299;28;20473;-74
2022/05/16 03:50:26;;;;;;;0.60;0.10;;;18.10;99.90;;;;;;5054546;28;20627;-74
2022/05/16 03:52:54;;;;;;;0.60;0.10;;;18.20;99.90;;;;;;5053704;28;20455;-75
2022/05/16 03:55:22;;;;;;;0.60;0.10;;;18.30;99.90;;;;;;5054302;28;20573;-75
2022/05/16 03:57:50;;;;;;;0.60;0.20;;;18.30;99.90;;;;;;5054071;28;20206;-74
2022/05/16 04:00:18;;;;;;;0.60;0.10;;;18.30;99.90;;;;;;5054445;28;20809;-75
2022/05/16 04:02:46;;;;;;;0.60;0.20;;;18.30;99.90;;;;;;5054975;28;20878;-74
2022/05/16 04:05:18;;;;;;;0.60;0.10;;;18.30;99.90;;;;;;5054975;28;20452;-74
2022/05/16 04:07:49;;;;;;;0.60;0.10;;;18.40;99.90;;;;;;5054549;28;20447;-75
2022/05/16 04:10:17;;;;;;;0.60;0.20;;;18.50;99.90;;;;;;5055595;28;20450;-74
2022/05/16 04:12:45;;;;;;;0.60;0.20;;;18.50;99.90;;;;;;5056465;28;20956;-74
2022/05/16 04:15:14;;;;;;;0.60;0.10;;;18.50;99.90;;;;;;5055353;28;20442;-74
2022/05/16 04:17:43;;;;;;;0.60;0.10;;;;;;;;;;5054281;28;20959;-74
2022/05/16 04:20:13;;;;;;;0.60;0.17;;;18.50;99.90;;;;;;5055664;28;20533;-74
2022/05/16 04:22:42;;;;;;;0.60;0.10;;;18.50;99.90;;;;;;5056447;28;20492;-75
2022/05/16 04:25:15;;;;;;;0.60;0.10;;;18.40;99.90;;;;;;5055882;28;20537;-75
2022/05/16 04:27:44;;;;;;;0.60;0.10;;;18.40;99.90;;;;;;5039199;28;20534;-74
2022/05/16 04:30:13;;;;;;;0.60;0.10;;;18.30;99.90;;;;;;5036449;28;21025;-74
2022/05/16 04:32:41;;;;;;;0.60;0.10;;;18.30;99.90;;;;;;5053533;28;20459;-74
2022/05/16 04:35:11;;;;;;;0.60;0.10;;;18.30;99.90;;;;;;5047154;28;20430;-75
2022/05/16 04:37:40;;;;;;;0.60;0.10;;;18.40;99.90;;;;;;5051810;28;20200;-75
2022/05/16 04:40:10;;;;;;;0.60;0.20;;;18.40;99.90;;;;;;5047382;28;20810;-74
2022/05/16 04:42:41;;;;;;;0.60;0.30;;;18.40;99.90;;;;;;5055377;28;20485;-75
2022/05/16 04:45:14;;;;;;;0.60;0.20;;;18.40;99.90;;;;;;5055525;28;20781;-75
2022/05/16 04:47:43;;;;;;;1.17;0.40;;;18.50;99.90;;;;;;5056050;28;20845;-75
2022/05/16 04:50:14;;;;;;;0.60;0.13;;;18.50;99.90;;;;;;5056200;28;20218;-74
2022/05/16 04:52:41;;;;;;;0.60;0.17;;;18.50;99.90;;;;;;5064048;28;20458;-71
2022/05/16 04:55:10;;;;;;;0.70;0.17;;;18.50;99.90;;;;;;5068846;28;20430;-70
2022/05/16 04:57:40;;;;;;;0.60;0.10;;;18.60;99.90;;;;;;5058243;28;20561;-71
2022/05/16 05:00:15;;;;;;;0.70;0.25;;;18.70;99.90;;;;;;5054880;28;20587;-69
2022/05/16 05:02:43;;;;;;;0.60;0.20;;;18.80;99.90;;;;;;5053137;28;20318;-72
2022/05/16 05:05:12;;;;;;;0.60;0.20;;;18.90;99.90;;;;;;5054062;28;20434;-69
2022/05/16 05:07:41;;;;;;;0.60;0.10;;;19.00;99.90;;;;;;5054176;28;20455;-70
2022/05/16 05:15:46;;;;;;;0.70;0.10;;;19.50;99.90;;;;;;5054053;28;20445;-71
2022/05/16 05:18:15;;;;;;;0.70;0.20;;;19.40;99.90;;;;;;5053205;28;20209;-72
2022/05/16 05:20:45;;;;;;;0.70;0.20;;;19.50;99.90;;;;;;5055387;28;20443;-70
2022/05/16 05:23:13;;;;;;;0.70;0.10;;;19.50;99.90;;;;;;5056407;28;20958;-69
2022/05/16 05:25:41;;;;;;;0.80;0.63;;;19.40;99.90;;;;;;5048374;28;20469;-72
2022/05/16 05:28:10;;;;;;;0.60;0.20;;;19.40;99.90;;;;;;5052788;28;20555;-72
2022/05/16 05:30:38;;;;;;;0.70;0.20;;;19.30;99.90;;;;;;5046778;28;20961;-72
2022/05/16 05:33:06;;;;;;;0.70;0.20;;;19.20;99.90;;;;;;5054343;28;20554;-71
2022/05/16 05:35:34;;;;;;;0.70;0.20;;;19.20;99.90;;;;;;5034608;28;20440;-71
2022/05/16 05:38:01;;;;;;;0.67;0.20;;;19.30;99.90;;;;;;5034131;28;20447;-70
2022/05/16 05:40:29;;;;;;;0.70;0.20;;;19.40;99.90;;;;;;5032330;28;20968;-70
2022/05/16 05:43:03;;;;;;;0.70;0.20;;;19.50;99.90;;;;;;5032755;28;20624;-71
2022/05/16 05:45:32;;;;;;;0.70;0.10;;;19.70;99.90;;;;;;5031619;28;20505;-72
2022/05/16 05:48:01;;;;;;;0.70;0.20;;;19.80;99.90;;;;;;5051490;28;20639;-72
2022/05/16 05:50:29;;;;;;;1.03;0.70;;;20.00;99.90;;;;;;5054199;28;20502;-71
2022/05/16 05:52:57;;;;;;;0.70;0.10;;;20.10;99.90;;;;;;5054853;28;20560;-72
2022/05/16 05:55:25;;;;;;;0.70;0.10;;;20.10;99.90;;;;;;5050297;28;20792;-71
2022/05/16 05:57:53;;;;;;;0.70;0.20;;;20.10;99.90;;;;;;5034276;28;20447;-71
2022/05/16 06:00:21;;;;;;;0.70;0.10;;;20.30;99.90;;;;;;5037459;28;20834;-72
2022/05/16 06:02:51;;;;;;;0.70;0.10;;;20.40;99.90;;;;;;5047429;28;20484;-72
2022/05/16 06:05:21;;;;;;;0.70;0.10;;;20.50;99.90;;;;;;5047009;28;20438;-71
2022/05/16 06:07:49;;;;;;;0.70;0.20;;;20.50;99.90;;;;;;5052521;28;20462;-72
2022/05/16 06:10:17;;;;;;;0.70;0.10;;;20.60;99.90;;;;;;5053120;28;20548;-72
2022/05/16 06:12:45;;;;;;;0.70;0.10;;;20.60;99.90;;;;;;5053212;28;20517;-71
2022/05/16 06:15:15;;;;;;;0.70;0.20;;;20.70;99.90;;;;;;5051572;28;20448;-73
2022/05/16 06:17:44;;;;;;;0.70;0.10;;;20.70;99.90;;;;;;5052349;28;20454;-70
2022/05/16 06:20:15;;;;;;;10.40;9.80;;;20.70;99.90;;;;;;5053197;28;20522;-71
2022/05/16 06:22:43;;;;;;;0.70;0.10;;;20.60;99.90;;;;;;5055333;28;20488;-71
2022/05/16 06:25:34;;;;;;;0.70;0.10;;;20.60;99.90;;;;;;5033499;28;20498;-71
2022/05/16 06:28:06;;;;;;;0.70;0.10;;;20.50;99.90;;;;;;5034141;28;20438;-70
2022/05/16 06:30:36;;;;;;;0.70;0.20;;;20.50;99.90;;;;;;5032716;28;20445;-70
2022/05/16 06:33:04;;;;;;;0.70;0.10;;;20.40;99.90;;;;;;5034675;28;20492;-71
2022/05/16 06:35:35;;;;;;;0.70;0.10;;;20.40;99.90;;;;;;5032816;28;20445;-71
2022/05/16 06:38:08;;;;;;;0.70;0.20;;;20.30;99.90;;;;;;5033632;28;20441;-71
2022/05/16 06:40:39;;;;;;;0.60;0.10;;;20.40;99.90;;;;;;5033125;28;20528;-71
2022/05/16 06:43:08;;;;;;;0.70;0.10;;;20.50;99.90;;;;;;5033210;28;20683;-71
2022/05/16 06:45:36;;;;;;;0.70;0.20;;;20.60;99.90;;;;;;5031450;28;20962;-72
2022/05/16 06:48:05;;;;;;;0.70;0.10;;;20.80;99.90;;;;;;5031903;28;20453;-73
2022/05/16 06:50:36;;;;;;;0.70;0.20;;;20.80;99.90;;;;;;5031502;28;20450;-72
2022/05/16 06:53:05;;;;;;;0.70;0.53;;;;;;;;;;5032209;28;20469;-73
2022/05/16 06:55:34;;;;;;;0.70;0.10;;;21.00;99.90;;;;;;5031851;28;20470;-71
2022/05/16 06:58:01;;;;;;;0.70;0.10;;;21.00;99.90;;;;;;5031930;28;20464;-74
2022/05/16 07:00:29;;;;;;;0.70;0.20;;;21.10;99.90;;;;;;5030757;28;20465;-70
2022/05/16 07:02:58;;;;;;;0.70;0.20;;;21.40;99.90;;;;;;5031560;28;20489;-73
2022/05/16 07:05:48;;;;;;;0.80;0.30;;;21.40;99.90;;;;;;5026162;28;20450;-73
2022/05/16 07:08:16;;;;;;;0.70;0.10;;;21.40;99.90;;;;;;5031292;28;20525;-72
2022/05/16 07:10:45;;;;;;;0.70;0.20;;;21.40;99.90;;;;;;5031602;28;20465;-72
2022/05/16 07:13:16;;;;;;;0.70;0.10;;;21.20;99.90;;;;;;5031798;28;20462;-72
2022/05/16 07:15:44;;;;;;;0.70;0.20;;;21.20;99.90;;;;;;5030923;28;20457;-71
2022/05/16 07:18:12;;;;;;;0.70;0.20;;;21.20;99.90;;;;;;5030911;28;20507;-72
2022/05/16 07:20:40;;;;;;;0.70;0.10;;;21.30;99.90;;;;;;5033776;28;20491;-71
2022/05/16 07:23:10;;;;;;;0.70;0.10;;;21.50;99.90;;;;;;5035240;28;20656;-73
2022/05/16 07:28:21;;;;;;;0.70;0.10;;;21.70;99.90;;;;;;5034508;28;20459;-72
2022/05/16 07:30:49;;;;;;;0.70;0.10;;;21.70;99.90;;;;;;5034605;28;20445;-73
2022/05/16 07:33:18;;;;;;;0.70;0.10;;;21.80;99.90;;;;;;5035236;28;21003;-72
2022/05/16 07:35:50;;;;;;;0.70;0.10;;;21.80;99.90;;;;;;5035287;28;20984;-73
2022/05/16 07:38:19;;;;;;;0.70;0.10;;;21.80;99.90;;;;;;5034333;28;20472;-72
2022/05/16 07:40:49;;;;;;;0.70;0.20;;;21.80;99.90;;;;;;5034679;28;20462;-71
2022/05/16 07:43:18;;;;;;;0.70;0.13;;;21.80;99.90;;;;;;5034980;28;20485;-72
2022/05/16 07:45:47;;;;;;;0.70;0.10;;;21.70;99.90;;;;;;5033956;28;20497;-72
2022/05/16 07:48:15;;;;;;;0.70;0.10;;;21.70;99.90;;;;;;5034109;28;20478;-72
2022/05/16 07:50:44;;;;;;;0.70;0.10;;;21.70;99.90;;;;;;5035046;28;20549;-72
2022/05/16 07:53:14;;;;;;;0.70;0.20;;;21.80;99.90;;;;;;5035782;28;20457;-72
2022/05/16 07:55:45;;;;;;;0.70;0.20;;;21.90;99.90;;;;;;5034693;28;20450;-72
2022/05/16 07:58:13;;;;;;;0.70;0.20;;;22.00;99.90;;;;;;5043103;28;20218;-73
2022/05/16 08:00:41;;;;;;;0.70;0.20;;;22.20;99.90;;;;;;5053893;28;20210;-74
2022/05/16 08:03:11;;;;;;;0.70;0.20;;;22.20;99.90;;;;;;5054486;28;20484;-74
2022/05/16 08:05:40;;;;;;;0.70;0.10;;;22.40;99.90;;;;;;5053919;28;20446;-73
2022/05/16 08:10:56;;;;;;;0.70;0.20;;;22.40;99.90;;;;;;5054266;28;20450;-74
2022/05/16 08:13:24;;;;;;;0.90;0.57;;;22.30;99.90;;;;;;5046339;28;20626;-72
2022/05/16 08:15:53;;;;;;;0.70;0.20;;;22.20;99.90;;;;;;5041998;28;20445;-73
2022/05/16 08:18:22;;;;;;;0.90;0.37;;;22.00;99.90;;;;;;5033355;28;20801;-74
2022/05/16 08:20:55;;;;;;;0.70;0.20;;;21.80;99.90;;;;;;5039832;28;20472;-76
2022/05/16 08:23:26;;;;;;;0.70;0.20;;;21.80;99.90;;;;;;5046874;28;20560;-74
2022/05/16 08:25:58;;;;;;;0.70;0.10;;;21.80;99.90;;;;;;5041726;28;20489;-73
2022/05/16 08:28:26;;;;;;;0.70;0.20;;;21.90;99.90;;;;;;5046891;28;20918;-73
2022/05/16 08:30:54;;;;;;;0.70;0.10;;;21.90;99.90;;;;;;5045332;28;20977;-73
2022/05/16 08:33:22;;;;;;;0.70;0.20;;;21.90;99.90;;;;;;5053968;28;20469;-73
2022/05/16 08:41:22;;;;;;;1.13;0.65;;;21.80;99.90;;;;;;5048367;28;20438;-73
2022/05/16 08:43:52;;;;;;;0.90;0.70;;;21.80;99.90;;;;;;5061254;28;20258;-72
2022/05/16 08:46:32;;;;;;;1.83;1.17;;;21.80;99.90;;;;;;5058417;28;21029;-73
2022/05/16 08:49:13;;;;;;;0.70;0.20;;;21.80;99.90;;;;;;5054787;28;20514;-77
2022/05/16 08:51:44;;;;;;;1.10;0.40;;;21.90;99.90;;;;;;5055055;28;20543;-76
2022/05/16 08:54:17;;;;;;;0.80;0.53;;;21.90;99.90;;;;;;5055182;28;20438;-77
2022/05/16 08:56:47;;;;;;;12.77;11.87;;;21.90;99.90;;;;;;5053491;28;20520;-76
2022/05/16 08:59:19;;;;;;;1.13;0.53;;;21.90;99.90;;;;;;5054402;28;20457;-76
2022/05/16 09:01:51;;;;;;;0.70;0.13;;;21.80;99.90;;;;;;5077775;23;20484;-77
2022/05/16 09:04:25;;;;;;;0.80;0.20;;;21.90;99.90;;;;;;5031558;28;21002;-78
2022/05/16 09:06:58;;;;;;;0.90;0.70;;;21.90;99.90;;;;;;5032744;28;20493;-77
2022/05/16 09:09:37;;;;;;;0.70;0.20;;;22.00;99.90;;;;;;5021163;28;20449;-76
2022/05/16 09:12:14;;;;;;;0.70;0.20;;;22.10;99.90;;;;;;5019047;28;20473;-78
2022/05/16 09:15:01;;;;;;;1.07;0.40;;;22.20;99.90;;;;;;5040964;28;20471;-77
2022/05/16 09:17:40;;;;;;;0.70;0.20;;;22.30;99.90;;;;;;5043384;28;20809;-77
2022/05/16 09:20:23;;;;;;;1.33;1.23;;;22.30;99.90;;;;;;5050923;28;20472;-76
2022/05/16 09:22:59;;;;;;;0.70;0.20;;;22.50;99.90;;;;;;5040118;28;20453;-77
2022/05/16 09:25:33;;;;;;;0.70;0.20;;;22.50;99.90;;;;;;5041033;28;20437;-76
2022/05/16 09:31:17;;;;;;;1.00;0.73;;;22.60;99.90;;;;;;4983952;28;20477;-78
2022/05/16 09:33:48;;;;;;;1.00;0.90;;;22.60;99.90;;;;;;4989833;28;20561;-76
2022/05/16 09:36:21;;;;;;;0.93;0.63;;;22.50;99.90;;;;;;5025046;28;20208;-72
2022/05/16 09:38:49;;;;;;;0.70;0.20;;;22.50;99.90;;;;;;5056786;28;20211;-73
2022/05/16 09:41:24;;;;;;;1.27;1.00;;;22.50;99.90;;;;;;5054108;28;20450;-71
2022/05/16 09:43:58;;;;;;;0.87;0.67;;;22.60;99.90;;;;;;5051986;28;20474;-73
2022/05/16 09:46:37;;;;;;;0.70;0.20;;;22.70;99.90;;;;;;5052421;28;20455;-73
2022/05/16 09:49:10;;;;;;;0.70;0.10;;;22.90;99.90;;;;;;5052319;28;20437;-73
2022/05/16 09:51:43;;;;;;;0.70;0.20;;;23.30;99.90;;;;;;5054434;28;20955;-72
2022/05/16 09:54:15;;;;;;;1.27;1.03;;;23.30;99.90;;;;;;5056019;28;20435;-72
2022/05/16 09:57:07;;;;;;;0.70;0.10;;;23.50;99.90;;;;;;5060619;28;20536;-73
2022/05/16 09:59:40;;;;;;;0.70;0.10;;;23.70;99.90;;;;;;5048659;28;20445;-73
2022/05/16 10:02:15;;;;;;;2.80;2.20;;;24.00;99.90;;;;;;5057182;28;20473;-72
2022/05/16 10:04:56;;;;;;;0.70;0.10;;;24.00;99.90;;;;;;5055607;28;20518;-74
2022/05/16 10:07:31;;;;;;;0.70;0.20;;;24.10;99.90;;;;;;5052641;28;20216;-73
2022/05/16 10:10:00;;;;;;;0.70;0.20;;;24.30;99.90;;;;;;5047378;28;20456;-73
2022/05/16 10:12:30;;;;;;;0.70;0.37;;;24.30;99.90;;;;;;5035857;28;20291;-74
2022/05/16 10:15:00;;;;;;;0.75;0.25;;;24.30;99.90;;;;;;5052372;28;20478;-74
2022/05/16 10:17:32;;;;;;;0.90;0.53;;;24.10;99.90;;;;;;5046884;28;20276;-73
2022/05/16 10:20:04;;;;;;;24.13;2.43;;;23.90;99.90;;;;;;5050834;28;20447;-73
2022/05/16 10:22:34;;;;;;;1.60;0.87;;;23.90;99.90;;;;;;5052288;28;20485;-72
2022/05/16 10:25:29;;;;;;;0.70;0.20;;;23.90;99.90;;;;;;5052501;28;20504;-73
2022/05/16 10:27:59;;;;;;;1.73;0.50;;;24.20;99.90;;;;;;5051524;28;20445;-72
2022/05/16 10:30:32;;;;;;;1.27;1.07;;;24.30;99.90;;;;;;5051446;28;20452;-72
2022/05/16 10:35:52;;;;;;;0.80;0.40;;;24.70;99.90;;;;;;5050835;28;20438;-73
2022/05/16 10:38:43;;;;;;;0.70;0.10;;;24.80;99.90;;;;;;5050969;28;20860;-72
2022/05/16 10:41:14;;;;;;;0.80;0.40;;;24.90;99.90;;;;;;5050870;28;20203;-73
2022/05/16 10:43:55;;;;;;;0.90;0.47;;;25.00;99.90;;;;;;5051305;28;20977;-73
2022/05/16 10:46:31;;;;;;;0.80;0.30;;;25.00;99.90;;;;;;5051348;28;20945;-73
2022/05/16 10:49:03;;;;;;;1.00;0.70;;;25.30;99.90;;;;;;5051900;28;20435;-73
2022/05/16 10:51:40;;;;;;;0.70;0.10;;;25.20;99.90;;;;;;5051966;28;20440;-72
2022/05/16 10:54:12;;;;;;;1.57;1.47;;;25.30;99.90;;;;;;5054075;28;20467;-73
2022/05/16 10:57:16;;;;;;;0.90;0.50;;;25.30;99.90;;;;;;5051686;28;20461;-74
2022/05/16 11:00:08;;;;;;;0.80;0.27;;;25.40;99.90;;;;;;5052281;28;20470;-76
2022/05/16 11:03:05;;;;;;;0.80;0.37;;;25.60;99.90;;;;;;5055781;28;20470;-76
2022/05/16 11:05:50;;;;;;;0.70;0.20;;;25.60;99.90;;;;;;5055373;28;20891;-73
2022/05/16 11:08:32;;;;;;;1.20;0.20;;;25.70;99.90;;;;;;5054667;28;20507;-73
2022/05/16 11:11:10;;;;;;;1.43;0.90;;;26.00;99.90;;;;;;5055944;28;20472;-75
2022/05/16 11:13:45;;;;;;;1.40;0.50;;;26.00;99.90;;;;;;5056642;28;20541;-72
2022/05/16 11:16:17;;;;;;;0.70;0.20;;;26.10;99.90;;;;;;5055286;28;20894;-73
2022/05/16 11:18:51;;;;;;;2.57;1.50;;;26.20;99.90;;;;;;5055697;28;20781;-72
2022/05/16 11:21:36;;;;;;;0.70;0.20;;;26.40;99.90;;;;;;5055087;28;20486;-73
2022/05/16 11:24:16;;;;;;;1.17;0.97;;;26.40;99.90;;;;;;5054535;28;20556;-72
2022/05/16 11:26:50;;;;;;;0.80;0.40;;;26.50;99.90;;;;;;5046143;28;20453;-72
2022/05/16 11:29:27;;;;;;;1.20;1.03;;;26.30;99.90;;;;;;5034671;28;20472;-72
2022/05/16 11:32:15;;;;;;;0.90;0.77;;;26.30;99.90;;;;;;5034598;28;20462;-73
2022/05/16 11:34:58;;;;;;;1.27;1.17;;;26.50;99.90;;;;;;5036098;28;20451;-73
2022/05/16 11:37:38;;;;;;;0.70;0.20;;;26.50;99.90;;;;;;5034106;28;20460;-73
2022/05/16 11:40:16;;;;;;;5.23;1.43;;;26.70;99.90;;;;;;5035623;28;20443;-74
2022/05/16 11:43:04;;;;;;;0.70;0.20;;;26.90;99.90;;;;;;5034702;28;20994;-73
2022/05/16 11:45:57;;;;;;;0.70;0.17;;;26.90;99.90;;;;;;5034727;28;20483;-74
2022/05/16 11:48:29;;;;;;;0.70;0.20;;;27.00;99.90;;;;;;5014681;28;20204;-74
2022/05/16 11:51:28;;;;;;;0.70;0.17;;;26.90;99.90;;;;;;5034762;28;20555;-73
2022/05/16 11:54:00;;;;;;;0.80;0.40;;;26.60;99.90;;;;;;5037922;28;20470;-73
2022/05/16 12:02:19;;;;;;;0.80;0.20;;;26.20;99.90;;;;;;5055143;28;20487;-80
2022/05/16 12:04:49;;;;;;;0.70;0.20;;;26.10;99.90;;;;;;5057748;28;20476;-80
2022/05/16 12:07:29;;;;;;;6.57;0.73;;;25.80;99.90;;;;;;5057796;28;20470;-83
2022/05/16 12:10:00;;;;;;;1.00;0.50;;;25.90;99.90;;;;;;5052880;28;20444;-80
2022/05/16 12:12:38;;;;;;;0.70;0.37;;;25.80;99.90;;;;;;5060068;28;20462;-81
2022/05/16 12:15:21;;;;;;;4.40;1.23;;;25.80;99.90;;;;;;5058326;28;20538;-82
2022/05/16 12:17:51;;;;;;;0.70;0.10;;;25.70;99.90;;;;;;5061394;28;20530;-79
2022/05/16 12:20:52;;;;;;;0.80;0.35;;;25.40;99.90;;;;;;5062464;28;20535;-80
2022/05/16 12:23:53;;;;;;;2.13;1.97;;;25.10;99.90;;;;;;5055172;28;20253;-76
2022/05/16 12:26:47;;;;;;;0.70;0.30;;;24.40;99.90;;;;;;5051255;28;20474;-82
2022/05/16 12:29:20;;;;;;;0.70;0.20;;;24.30;99.90;;;;;;5034903;28;20451;-80
2022/05/16 12:31:53;;;;;;;0.97;0.23;;;24.20;99.90;;;;;;5059830;28;20444;-80
2022/05/16 12:34:42;;;;;;;0.70;0.10;;;24.20;99.90;;;;;;5064536;28;20460;-82
2022/05/16 12:37:13;;;;;;;0.70;0.30;;;23.80;99.90;;;;;;5059933;28;20812;-80
2022/05/16 12:39:50;;;;;;;0.70;0.30;;;23.60;99.90;;;;;;5061442;28;20540;-82
2022/05/16 12:42:49;;;;;;;0.70;0.10;;;23.40;99.90;;;;;;5055349;28;20465;-81
2022/05/16 12:45:31;;;;;;;0.70;0.20;;;23.40;99.90;;;;;;5060208;28;20572;-82
2022/05/16 12:48:14;;;;;;;0.70;0.10;;;23.40;99.90;;;;;;5060755;28;20446;-80
2022/05/16 12:51:22;;;;;;;0.70;0.30;;;23.50;99.90;;;;;;5063855;28;20547;-80
2022/05/16 12:54:17;;;;;;;1.57;1.47;;;23.70;99.90;;;;;;5064247;28;20476;-81
2022/05/16 12:56:48;;;;;;;0.70;0.20;;;23.70;99.90;;;;;;5062689;28;20423;-82
2022/05/16 12:59:34;;;;;;;0.70;0.20;;;24.00;99.90;;;;;;5062675;28;20214;-82
2022/05/16 13:02:10;;;;;;;0.70;0.10;;;24.40;99.90;;;;;;5064333;28;20450;-82
2022/05/16 13:04:52;;;;;;;0.70;0.10;;;24.40;99.90;;;;;;5060135;28;20446;-80
2022/05/16 13:07:25;;;;;;;0.70;0.17;;;24.50;99.90;;;;;;5063467;28;20441;-82
2022/05/16 13:10:03;;;;;;;11.17;10.40;;;24.60;99.90;;;;;;5062501;28;20451;-83
2022/05/16 13:12:50;;;;;;;0.70;0.20;;;24.60;99.90;;;;;;5067909;28;20466;-81
2022/05/16 13:15:28;;;;;;;3.13;2.93;;;24.60;99.90;;;;;;5069296;28;20436;-83
2022/05/16 13:17:58;;;;;;;1.43;0.70;;;24.50;99.90;;;;;;5068681;28;20466;-80
2022/05/16 13:20:33;;;;;;;0.80;0.50;;;24.50;99.90;;;;;;5068000;28;20466;-82
2022/05/16 13:23:02;;;;;;;1.30;1.20;;;24.60;99.90;;;;;;5065478;28;20489;-81
2022/05/16 13:29:21;;;;;;;1.53;0.77;;;24.50;99.90;;;;;;5061559;28;20628;-82
2022/05/16 13:31:07;;;;;;;0.70;0.30;;;24.20;99.90;;;;;;5058384;28;20451;-84
2022/05/16 13:33:38;;;;;;;0.70;0.27;;;24.40;99.90;;;;;;5058987;28;20490;-80
2022/05/16 13:36:18;;;;;;;6.83;2.20;;;24.40;99.90;;;;;;5061201;28;20431;-81
2022/05/16 13:38:51;;;;;;;1.27;0.50;;;24.50;99.90;;;;;;5067846;28;20451;-81
2022/05/16 13:41:23;;;;;;;2.05;0.70;;;24.40;99.90;;;;;;5064021;28;20534;-81
2022/05/16 13:43:52;;;;;;;0.80;0.37;;;24.30;99.90;;;;;;5063971;28;20240;-79
2022/05/16 13:46:22;;;;;;;0.70;0.10;;;24.30;99.90;;;;;;5055317;28;20593;-82
2022/05/16 13:48:58;;;;;;;0.90;0.40;;;24.40;99.90;;;;;;5058712;28;20442;-81
2022/05/16 13:51:34;;;;;;;0.80;0.37;;;24.50;99.90;;;;;;5048643;28;20499;-82
2022/05/16 13:54:05;;;;;;;0.70;0.20;;;24.60;99.90;;;;;;5050917;28;20494;-81